createdAt,value
2022-08-20T00:02:17.822Z,20.93
2022-08-20T00:04:46.756Z,19.60
2022-08-20T00:07:15.742Z,16.90
2022-08-20T00:09:45.225Z,20.73
2022-08-20T00:12:14.674Z,21.20
2022-08-20T00:14:43.494Z,22.07
2022-08-20T00:17:13.881Z,19.23
2022-08-20T00:19:43.799Z,16.03
2022-08-20T00:22:13.606Z,17.10
2022-08-20T00:24:42.728Z,21.83
2022-08-20T00:27:11.480Z,19.40
2022-08-20T00:29:40.221Z,17.97
2022-08-20T00:32:09.406Z,21.10
2022-08-20T00:34:39.645Z,16.70
2022-08-20T00:37:08.911Z,16.50
2022-08-20T00:39:37.980Z,21.03
2022-08-20T00:42:07.046Z,20.60
2022-08-20T00:44:36.110Z,17.47
2022-08-20T00:47:05.275Z,17.70
2022-08-20T00:49:34.224Z,17.30
2022-08-20T00:52:08.553Z,18.43
2022-08-20T00:54:40.821Z,15.73
2022-08-20T00:57:12.284Z,20.83
2022-08-20T00:59:43.112Z,15.63
2022-08-20T01:02:15.736Z,18.30
2022-08-20T01:04:47.614Z,21.53
2022-08-20T01:07:20.797Z,18.00
2022-08-20T01:09:59.145Z,17.17
2022-08-20T01:12:29.768Z,16.03
2022-08-20T01:15:00.001Z,15.50
2022-08-20T01:17:32.926Z,25.03
2022-08-20T01:20:05.290Z,17.60
2022-08-20T01:22:59.515Z,14.07
2022-08-20T01:25:34.465Z,14.47
2022-08-20T01:28:05.500Z,14.93
2022-08-20T01:30:35.197Z,14.33
2022-08-20T01:33:03.952Z,15.60
2022-08-20T01:35:37.730Z,13.43
2022-08-20T01:38:07.361Z,13.70
2022-08-20T01:41:16.038Z,14.40
2022-08-20T01:43:49.014Z,17.10
2022-08-20T01:46:18.786Z,11.73
2022-08-20T01:48:49.124Z,16.13
2022-08-20T01:51:20.528Z,13.23
2022-08-20T01:53:51.511Z,24.80
2022-08-20T01:56:22.337Z,12.70
2022-08-20T01:58:56.229Z,16.77
2022-08-20T02:01:30.180Z,12.20
2022-08-20T02:03:59.051Z,14.03
2022-08-20T02:06:29.208Z,21.60
2022-08-20T02:09:00.125Z,15.30
2022-08-20T02:11:30.761Z,12.60
2022-08-20T02:14:01.042Z,10.13
2022-08-20T02:16:32.254Z,11.83
2022-08-20T02:19:05.129Z,12.80
2022-08-20T02:21:34.205Z,10.17
2022-08-20T02:24:03.356Z,14.10
2022-08-20T02:26:32.436Z,13.20
2022-08-20T02:29:04.405Z,12.70
2022-08-20T02:31:35.027Z,12.43
2022-08-20T02:34:21.977Z,13.43
2022-08-20T02:36:52.458Z,10.53
2022-08-20T02:39:21.268Z,16.13
2022-08-20T02:41:50.561Z,10.87
2022-08-20T02:44:21.456Z,9.47
2022-08-20T02:46:51.039Z,13.60
2022-08-20T02:49:20.450Z,8.37
2022-08-20T02:51:49.682Z,14.23
2022-08-20T02:54:18.659Z,9.53
2022-08-20T02:56:47.425Z,9.10
2022-08-20T02:59:19.006Z,8.70
2022-08-20T03:01:56.715Z,7.83
2022-08-20T03:04:29.656Z,9.07
2022-08-20T03:06:58.843Z,7.80
2022-08-20T03:09:27.812Z,10.50
2022-08-20T03:11:56.578Z,9.43
2022-08-20T03:14:25.521Z,7.67
2022-08-20T03:16:55.827Z,7.50
2022-08-20T03:19:24.649Z,8.43
2022-08-20T03:21:53.985Z,11.43
2022-08-20T03:24:22.971Z,9.70
2022-08-20T03:26:51.971Z,8.50
2022-08-20T03:29:20.743Z,6.47
2022-08-20T03:31:49.496Z,6.37
2022-08-20T03:34:20.010Z,7.30
2022-08-20T03:36:48.885Z,7.50
2022-08-20T03:39:17.744Z,9.43
2022-08-20T03:41:46.763Z,6.37
2022-08-20T03:44:15.552Z,7.17
2022-08-20T03:46:44.514Z,7.60
2022-08-20T03:49:13.254Z,10.57
2022-08-20T03:51:43.502Z,10.10
2022-08-20T03:54:27.452Z,5.93
2022-08-20T03:57:03.008Z,14.10
2022-08-20T03:59:41.264Z,8.07
2022-08-20T04:02:11.036Z,7.10
2022-08-20T04:04:40.275Z,7.47
2022-08-20T04:07:14.884Z,9.10
2022-08-20T04:09:44.375Z,13.30
2022-08-20T04:12:13.575Z,5.47
2022-08-20T04:14:42.375Z,5.87
2022-08-20T04:17:12.698Z,5.53
2022-08-20T04:19:42.491Z,6.30
2022-08-20T04:22:14.378Z,6.20
2022-08-20T04:24:43.495Z,6.90
2022-08-20T04:27:14.723Z,6.20
2022-08-20T04:29:44.593Z,5.80
2022-08-20T04:32:13.992Z,6.27
2022-08-20T04:34:45.933Z,12.23
2022-08-20T04:37:21.065Z,5.53
2022-08-20T04:40:10.581Z,6.43
2022-08-20T04:42:39.564Z,6.17
2022-08-20T04:45:10.006Z,9.70
2022-08-20T04:47:38.840Z,7.17
2022-08-20T04:50:10.533Z,5.70
2022-08-20T04:52:40.997Z,8.30
2022-08-20T04:55:10.770Z,4.80
2022-08-20T04:57:39.522Z,10.30
2022-08-20T05:00:10.461Z,4.60
2022-08-20T05:02:39.663Z,8.70
2022-08-20T05:05:09.551Z,5.90
2022-08-20T05:07:41.521Z,9.83
2022-08-20T05:10:13.591Z,5.33
2022-08-20T05:12:42.929Z,5.23
2022-08-20T05:15:26.032Z,5.83
2022-08-20T05:18:02.792Z,5.70
2022-08-20T05:20:34.103Z,5.17
2022-08-20T05:23:04.290Z,7.20
2022-08-20T05:25:33.137Z,5.47
2022-08-20T05:28:09.463Z,4.83
2022-08-20T05:30:39.599Z,5.00
2022-08-20T05:33:10.026Z,6.73
2022-08-20T05:35:40.135Z,4.90
2022-08-20T05:38:13.285Z,5.83
2022-08-20T05:40:43.089Z,6.70
2022-08-20T05:43:13.327Z,5.00
2022-08-20T05:45:43.536Z,4.30
2022-08-20T05:48:14.608Z,6.00
2022-08-20T05:50:45.284Z,9.03
2022-08-20T05:53:15.583Z,5.60
2022-08-20T05:55:45.649Z,4.50
2022-08-20T05:58:20.649Z,7.90
2022-08-20T06:00:50.084Z,4.90
2022-08-20T06:03:45.169Z,7.50
2022-08-20T06:06:17.880Z,4.10
2022-08-20T06:09:04.511Z,4.77
2022-08-20T06:11:37.161Z,4.83
2022-08-20T06:14:06.761Z,6.10
2022-08-20T06:16:37.337Z,4.47
2022-08-20T06:19:07.079Z,3.90
2022-08-20T06:21:40.667Z,4.23
2022-08-20T06:24:11.125Z,4.23
2022-08-20T06:26:40.013Z,4.40
2022-08-20T06:29:09.037Z,4.53
2022-08-20T06:31:39.900Z,5.90
2022-08-20T06:34:08.765Z,6.53
2022-08-20T06:36:37.556Z,8.17
2022-08-20T06:39:06.405Z,6.80
2022-08-20T06:41:37.242Z,4.67
2022-08-20T06:44:07.533Z,5.43
2022-08-20T06:46:37.083Z,4.10
2022-08-20T06:49:06.378Z,8.37
2022-08-20T06:51:35.259Z,6.90
2022-08-20T06:54:05.053Z,15.00
2022-08-20T06:56:35.021Z,4.97
2022-08-20T06:59:05.132Z,9.40
2022-08-20T07:01:34.389Z,5.67
2022-08-20T07:04:03.699Z,7.40
2022-08-20T07:06:32.455Z,15.47
2022-08-20T07:09:01.303Z,6.13
2022-08-20T07:11:30.356Z,6.70
2022-08-20T07:13:59.475Z,5.20
2022-08-20T07:16:29.599Z,4.40
2022-08-20T07:18:58.473Z,5.47
2022-08-20T07:21:27.322Z,4.70
2022-08-20T07:23:56.300Z,5.83
2022-08-20T07:26:25.641Z,7.87
2022-08-20T07:28:54.663Z,4.47
2022-08-20T07:31:42.287Z,4.10
2022-08-20T07:34:13.754Z,10.23
2022-08-20T07:36:43.492Z,6.50
2022-08-20T07:39:12.280Z,8.17
2022-08-20T07:41:41.127Z,5.13
2022-08-20T07:44:09.922Z,4.40
2022-08-20T07:46:38.777Z,4.80
2022-08-20T07:49:09.985Z,4.33
2022-08-20T07:51:40.432Z,5.30
2022-08-20T07:54:09.258Z,4.80
2022-08-20T07:56:38.052Z,8.93
2022-08-20T07:59:07.166Z,5.87
2022-08-20T08:01:35.880Z,7.30
2022-08-20T08:04:06.227Z,5.30
2022-08-20T08:06:35.375Z,4.90
2022-08-20T08:09:07.206Z,4.50
2022-08-20T08:11:39.651Z,5.27
2022-08-20T08:14:09.614Z,7.60
2022-08-20T08:16:39.352Z,7.13
2022-08-20T08:19:11.898Z,4.73
2022-08-20T08:21:41.228Z,7.10
2022-08-20T08:24:15.472Z,6.93
2022-08-20T08:26:49.864Z,4.20
2022-08-20T08:29:18.680Z,5.07
2022-08-20T08:31:47.468Z,6.53
2022-08-20T08:34:16.832Z,4.90
2022-08-20T08:36:45.688Z,5.63
2022-08-20T08:39:16.420Z,4.50
2022-08-20T08:41:49.456Z,5.40
2022-08-20T08:44:23.361Z,4.63
2022-08-20T08:46:56.271Z,10.20
2022-08-20T08:49:37.375Z,4.20
2022-08-20T08:52:11.436Z,8.00
2022-08-20T08:54:44.447Z,4.30
2022-08-20T08:57:13.470Z,7.70
2022-08-20T08:59:52.509Z,4.90
2022-08-20T09:02:32.071Z,4.10
2022-08-20T09:05:02.891Z,6.97
2022-08-20T09:07:33.591Z,5.50
2022-08-20T09:10:04.509Z,5.73
2022-08-20T09:12:33.245Z,3.70
2022-08-20T09:15:02.091Z,6.63
2022-08-20T09:17:30.846Z,4.47
2022-08-20T09:19:59.614Z,4.47
2022-08-20T09:22:28.621Z,4.67
2022-08-20T09:24:57.882Z,10.83
2022-08-20T09:27:28.073Z,12.57
2022-08-20T09:29:56.855Z,6.03
2022-08-20T09:32:26.292Z,7.73
2022-08-20T09:34:56.797Z,7.50
2022-08-20T09:37:26.783Z,6.03
2022-08-20T09:39:56.000Z,9.93
2022-08-20T09:42:26.615Z,4.57
2022-08-20T09:44:57.275Z,8.07
2022-08-20T09:47:26.308Z,6.87
2022-08-20T09:49:55.638Z,6.93
2022-08-20T09:52:26.104Z,11.93
2022-08-20T09:54:58.478Z,5.07
2022-08-20T09:57:27.915Z,21.43
2022-08-20T10:00:00.307Z,10.30
2022-08-20T10:02:30.564Z,9.90
2022-08-20T10:04:59.315Z,8.63
2022-08-20T10:07:28.139Z,7.17
2022-08-20T10:09:56.921Z,12.80
2022-08-20T10:12:25.711Z,8.40
2022-08-20T10:14:55.663Z,8.33
2022-08-20T10:17:25.853Z,6.90
2022-08-20T10:19:54.590Z,11.77
2022-08-20T10:22:24.383Z,6.60
2022-08-20T10:24:53.132Z,7.40
2022-08-20T10:27:21.949Z,8.30
2022-08-20T10:29:50.681Z,7.20
2022-08-20T10:32:19.683Z,7.57
2022-08-20T10:34:51.273Z,8.53
2022-08-20T10:37:22.088Z,11.63
2022-08-20T10:39:50.901Z,5.10
2022-08-20T10:42:20.081Z,9.93
2022-08-20T10:44:48.874Z,5.63
2022-08-20T10:47:20.298Z,10.43
2022-08-20T10:49:51.893Z,9.40
2022-08-20T10:52:22.770Z,5.70
2022-08-20T10:54:52.156Z,6.03
2022-08-20T10:57:22.821Z,6.03
2022-08-20T10:59:53.222Z,5.83
2022-08-20T11:02:22.804Z,2.90
2022-08-20T11:04:53.933Z,1.10
2022-08-20T11:07:55.594Z,1.93
2022-08-20T11:10:15.707Z,2.30
2022-08-20T11:12:46.320Z,2.40
2022-08-20T11:15:15.974Z,3.83
2022-08-20T11:17:45.712Z,2.00
2022-08-20T11:20:18.077Z,1.63
2022-08-20T11:22:47.120Z,1.40
2022-08-20T11:25:15.958Z,1.50
2022-08-20T11:27:46.387Z,2.73
2022-08-20T11:30:18.461Z,1.50
2022-08-20T11:32:47.262Z,3.47
2022-08-20T11:35:41.695Z,4.30
2022-08-20T11:38:07.720Z,1.90
2022-08-20T11:40:36.647Z,1.80
2022-08-20T11:43:20.826Z,2.37
2022-08-20T11:45:51.202Z,4.13
2022-08-20T11:48:19.946Z,2.07
2022-08-20T11:50:51.789Z,1.87
2022-08-20T11:53:20.521Z,1.20
2022-08-20T11:55:51.157Z,1.30
2022-08-20T11:58:20.328Z,1.40
2022-08-20T12:00:49.173Z,1.30
2022-08-20T12:03:18.093Z,1.30
2022-08-20T12:05:47.715Z,2.93
2022-08-20T12:08:26.668Z,1.40
2022-08-20T12:10:57.629Z,2.63
2022-08-20T12:13:30.861Z,1.60
2022-08-20T12:16:16.219Z,8.73
2022-08-20T12:18:45.264Z,4.03
2022-08-20T12:21:14.064Z,4.07
2022-08-20T12:23:44.354Z,1.30
2022-08-20T12:26:13.095Z,2.13
2022-08-20T12:28:41.843Z,1.20
2022-08-20T12:31:10.691Z,7.60
2022-08-20T12:33:39.410Z,1.97
2022-08-20T12:36:08.646Z,1.03
2022-08-20T12:38:37.490Z,1.73
2022-08-20T12:41:07.743Z,2.60
2022-08-20T12:43:36.524Z,1.23
2022-08-20T12:46:05.478Z,1.13
2022-08-20T12:48:34.233Z,1.10
2022-08-20T12:51:03.042Z,1.30
2022-08-20T12:53:31.880Z,1.73
2022-08-20T12:56:02.445Z,1.53
2022-08-20T12:58:32.612Z,2.23
2022-08-20T13:01:01.446Z,1.50
2022-08-20T13:03:32.117Z,3.97
2022-08-20T13:06:02.320Z,5.67
2022-08-20T13:08:31.343Z,5.07
2022-08-20T13:11:00.072Z,3.60
2022-08-20T13:13:28.873Z,2.13
2022-08-20T13:15:58.971Z,1.73
2022-08-20T13:18:27.730Z,2.20
2022-08-20T13:20:56.487Z,2.40
2022-08-20T13:23:25.271Z,2.70
2022-08-20T13:25:54.037Z,10.10
2022-08-20T13:28:22.805Z,4.07
2022-08-20T13:30:51.776Z,3.20
2022-08-20T13:33:22.059Z,8.37
2022-08-20T13:35:50.772Z,7.60
2022-08-20T13:38:19.829Z,10.43
2022-08-20T13:40:48.811Z,5.10
2022-08-20T13:43:17.895Z,3.60
2022-08-20T13:45:46.642Z,2.10
2022-08-20T13:48:15.562Z,2.90
2022-08-20T13:50:47.008Z,4.67
2022-08-20T13:53:17.184Z,2.70
2022-08-20T13:55:46.335Z,2.57
2022-08-20T13:58:15.166Z,13.93
2022-08-20T14:00:44.209Z,6.70
2022-08-20T14:03:13.744Z,3.10
2022-08-20T14:05:47.929Z,8.13
2022-08-20T14:08:18.992Z,10.80
2022-08-20T14:10:51.525Z,3.33
2022-08-20T14:13:22.308Z,2.77
2022-08-20T14:15:52.103Z,2.70
2022-08-20T14:18:21.284Z,6.83
2022-08-20T14:20:51.513Z,5.30
2022-08-20T14:23:20.285Z,3.33
2022-08-20T14:25:50.566Z,2.20
2022-08-20T14:28:21.719Z,3.60
2022-08-20T14:30:52.858Z,2.40
2022-08-20T14:33:23.124Z,3.03
2022-08-20T14:35:54.528Z,4.40
2022-08-20T14:38:23.685Z,2.67
2022-08-20T14:40:52.708Z,4.00
2022-08-20T14:43:21.449Z,2.30
2022-08-20T14:45:50.334Z,1.83
2022-08-20T14:48:19.098Z,3.30
2022-08-20T14:50:47.945Z,1.20
2022-08-20T14:53:19.387Z,2.00
2022-08-20T14:55:50.506Z,2.30
2022-08-20T14:58:19.381Z,1.33
2022-08-20T15:00:48.245Z,1.60
2022-08-20T15:03:16.958Z,2.10
2022-08-20T15:05:45.719Z,2.03
2022-08-20T15:08:14.519Z,3.50
2022-08-20T15:10:46.174Z,1.67
2022-08-20T15:13:14.921Z,2.60
2022-08-20T15:15:43.714Z,2.23
2022-08-20T15:18:12.420Z,2.50
2022-08-20T15:20:41.192Z,2.50
2022-08-20T15:23:09.989Z,5.80
2022-08-20T15:25:38.804Z,1.73
2022-08-20T15:28:10.070Z,3.57
2022-08-20T15:30:40.431Z,4.30
2022-08-20T15:33:09.599Z,1.83
2022-08-20T15:35:38.488Z,2.37
2022-08-20T15:38:07.285Z,2.30
2022-08-20T15:40:36.095Z,1.33
2022-08-20T15:43:05.978Z,3.33
2022-08-20T15:45:36.834Z,1.30
2022-08-20T15:48:10.703Z,1.63
2022-08-20T15:50:52.057Z,2.90
2022-08-20T15:53:27.322Z,2.60
2022-08-20T15:56:03.665Z,1.20
2022-08-20T15:58:37.901Z,1.57
2022-08-20T16:01:24.641Z,1.30
2022-08-20T16:04:07.629Z,1.93
2022-08-20T16:06:36.873Z,1.50
2022-08-20T16:09:22.235Z,1.93
2022-08-20T16:11:55.482Z,8.03
2022-08-20T16:14:26.963Z,1.90
2022-08-20T16:17:01.200Z,1.97
2022-08-20T16:19:38.863Z,10.33
2022-08-20T16:22:09.054Z,1.50
2022-08-20T16:24:37.813Z,1.40
2022-08-20T16:27:13.635Z,1.63
2022-08-20T16:29:52.117Z,1.60
2022-08-20T16:32:35.698Z,1.50
2022-08-20T16:35:17.623Z,2.77
2022-08-20T16:37:51.513Z,2.97
2022-08-20T16:40:24.408Z,1.30
2022-08-20T16:42:55.925Z,1.73
2022-08-20T16:45:27.619Z,1.93
2022-08-20T16:48:01.034Z,2.00
2022-08-20T16:50:34.554Z,2.60
2022-08-20T16:53:03.347Z,1.50
2022-08-20T16:55:32.495Z,2.67
2022-08-20T16:58:01.514Z,1.40
2022-08-20T17:00:35.454Z,2.60
2022-08-20T17:03:08.258Z,4.03
2022-08-20T17:05:47.243Z,2.50
2022-08-20T17:08:25.979Z,1.63
2022-08-20T17:11:01.193Z,1.40
2022-08-20T17:13:32.086Z,2.10
2022-08-20T17:16:03.446Z,1.80
2022-08-20T17:18:36.662Z,2.40
2022-08-20T17:21:13.270Z,1.37
2022-08-20T17:23:55.928Z,1.33
2022-08-20T17:26:29.582Z,1.80
2022-08-20T17:29:00.508Z,2.53
2022-08-20T17:31:39.046Z,3.40
2022-08-20T17:34:16.607Z,6.23
2022-08-20T17:36:53.644Z,1.50
2022-08-20T17:39:23.854Z,5.07
2022-08-20T17:41:56.068Z,9.40
2022-08-20T17:44:29.297Z,1.83
2022-08-20T17:47:00.130Z,2.03
2022-08-20T17:49:35.502Z,1.37
2022-08-20T17:52:06.833Z,1.20
2022-08-20T17:54:38.728Z,2.80
2022-08-20T17:57:14.269Z,3.00
2022-08-20T18:00:01.158Z,3.63
2022-08-20T18:02:32.249Z,4.17
2022-08-20T18:05:03.406Z,4.30
2022-08-20T18:07:36.615Z,2.50
2022-08-20T18:10:10.016Z,5.37
2022-08-20T18:12:42.787Z,47.93
2022-08-20T18:15:19.303Z,4.77
2022-08-20T18:18:15.103Z,2.60
2022-08-20T18:21:07.735Z,3.10
2022-08-20T18:23:41.110Z,1.90
2022-08-20T18:26:14.707Z,3.90
2022-08-20T18:28:47.043Z,1.73
2022-08-20T18:31:26.699Z,3.33
2022-08-20T18:33:56.032Z,4.10
2022-08-20T18:36:28.547Z,6.83
2022-08-20T18:39:01.773Z,3.53
2022-08-20T18:41:32.825Z,3.50
2022-08-20T18:44:08.211Z,3.97
2022-08-20T18:46:38.449Z,6.93
2022-08-20T18:49:08.778Z,5.03
2022-08-20T18:51:42.623Z,3.20
2022-08-20T18:54:23.236Z,5.63
2022-08-20T18:57:04.285Z,4.18
2022-08-20T18:59:39.280Z,4.33
2022-08-20T19:02:16.130Z,3.57
2022-08-20T19:04:48.571Z,3.43
2022-08-20T19:07:24.809Z,3.50
2022-08-20T19:10:33.690Z,4.07
2022-08-20T19:13:27.927Z,3.03
2022-08-20T19:16:02.253Z,3.23
2022-08-20T19:18:34.807Z,3.10
2022-08-20T19:21:04.643Z,3.03
2022-08-20T19:23:38.805Z,2.97
2022-08-20T19:26:24.909Z,4.27
2022-08-20T19:28:56.955Z,4.20
2022-08-20T19:31:28.111Z,3.13
2022-08-20T19:34:19.576Z,4.13
2022-08-20T19:36:55.892Z,2.97
2022-08-20T19:39:29.833Z,4.83
2022-08-20T19:42:02.514Z,3.33
2022-08-20T19:44:34.651Z,4.93
2022-08-20T19:47:03.700Z,5.33
2022-08-20T19:49:42.954Z,4.20
2022-08-20T19:52:23.353Z,3.27
2022-08-20T19:54:58.935Z,3.70
2022-08-20T19:57:31.882Z,5.27
2022-08-20T20:00:05.130Z,3.53
2022-08-20T20:02:34.892Z,6.30
2022-08-20T20:05:06.776Z,4.40
2022-08-20T20:07:38.963Z,10.90
2022-08-20T20:10:11.707Z,3.60
2022-08-20T20:12:40.903Z,5.00
2022-08-20T20:15:10.259Z,3.20
2022-08-20T20:17:40.322Z,7.37
2022-08-20T20:20:21.048Z,6.40
2022-08-20T20:22:53.014Z,4.93
2022-08-20T20:25:25.585Z,5.73
2022-08-20T20:27:56.403Z,4.40
2022-08-20T20:30:28.654Z,3.77
2022-08-20T20:32:58.870Z,3.57
2022-08-20T20:35:30.434Z,3.97
2022-08-20T20:38:02.048Z,4.73
2022-08-20T20:40:36.166Z,5.00
2022-08-20T20:43:07.909Z,5.17
2022-08-20T20:45:40.947Z,5.03
2022-08-20T20:48:19.224Z,11.50
2022-08-20T20:50:49.186Z,4.67
2022-08-20T20:53:35.135Z,5.57
2022-08-20T20:56:33.461Z,4.10
2022-08-20T20:59:06.118Z,6.10
2022-08-20T21:01:49.605Z,4.73
2022-08-20T21:04:20.326Z,5.30
2022-08-20T21:06:49.593Z,7.10
2022-08-20T21:09:19.154Z,5.60
2022-08-20T21:11:50.186Z,3.90
2022-08-20T21:14:20.636Z,6.20
2022-08-20T21:16:49.458Z,3.90
2022-08-20T21:19:18.944Z,4.50
2022-08-20T21:21:47.861Z,4.87
2022-08-20T21:24:16.626Z,6.03
2022-08-20T21:26:46.056Z,4.83
2022-08-20T21:29:18.473Z,9.90
2022-08-20T21:31:47.516Z,5.67
2022-08-20T21:34:17.460Z,3.50
2022-08-20T21:36:47.042Z,7.23
2022-08-20T21:39:15.952Z,5.33
2022-08-20T21:41:46.257Z,11.20
2022-08-20T21:44:21.512Z,4.40
2022-08-20T21:46:50.550Z,5.83
2022-08-20T21:49:20.761Z,5.20
2022-08-20T21:51:50.075Z,5.83
2022-08-20T21:54:19.484Z,3.97
2022-08-20T21:56:51.067Z,4.03
2022-08-20T21:59:22.383Z,5.00
2022-08-20T22:01:51.356Z,3.57
2022-08-20T22:04:20.552Z,6.03
2022-08-20T22:06:49.906Z,5.00
2022-08-20T22:09:18.930Z,6.77
2022-08-20T22:11:53.860Z,7.53
2022-08-20T22:14:24.779Z,8.03
2022-08-20T22:16:53.625Z,5.83
2022-08-20T22:19:22.388Z,6.60
2022-08-20T22:21:51.697Z,4.30
2022-08-20T22:24:20.525Z,4.87
2022-08-20T22:26:49.268Z,5.23
2022-08-20T22:29:18.065Z,11.00
2022-08-20T22:31:48.411Z,5.37
2022-08-20T22:34:20.251Z,6.77
2022-08-20T22:36:49.423Z,6.13
2022-08-20T22:39:18.234Z,5.13
2022-08-20T22:41:47.137Z,3.80
2022-08-20T22:44:15.888Z,3.40
2022-08-20T22:46:48.818Z,5.53
2022-08-20T22:49:23.912Z,4.53
2022-08-20T22:51:52.846Z,7.83
2022-08-20T22:54:24.337Z,8.47
2022-08-20T22:56:54.040Z,6.53
2022-08-20T22:59:23.413Z,4.37
2022-08-20T23:01:53.400Z,5.33
2022-08-20T23:04:27.039Z,8.52
2022-08-20T23:06:56.601Z,6.27
2022-08-20T23:09:25.616Z,7.13
2022-08-20T23:11:54.897Z,5.40
2022-08-20T23:14:23.657Z,5.97
2022-08-20T23:17:00.711Z,5.03
2022-08-20T23:19:30.899Z,4.50
2022-08-20T23:21:59.797Z,5.07
2022-08-20T23:24:28.797Z,4.97
2022-08-20T23:26:57.836Z,11.23
2022-08-20T23:29:27.137Z,7.30
2022-08-20T23:31:57.123Z,4.93
2022-08-20T23:34:26.113Z,5.57
2022-08-20T23:36:57.737Z,6.63
2022-08-20T23:39:27.722Z,6.70
2022-08-20T23:41:56.746Z,4.20
2022-08-20T23:44:27.175Z,9.53
2022-08-20T23:46:57.282Z,6.33
2022-08-20T23:49:26.602Z,3.63
2022-08-20T23:51:57.751Z,6.70
2022-08-20T23:54:26.428Z,4.40
2022-08-20T23:56:57.074Z,5.80
2022-08-20T23:59:26.785Z,11.47
